Etusivu
METAR-TAF:

METAR-TAF

Lentoasemat :

Rønne, Tanska

Leveyspiiri: 55-04N, Pituuspiiri: 014-45E, korkeus merenpinnasta: 16 m

Tämänhetkinen sää

Tämä raportti tehtiin 32 minuuttia sitten, kello 11.50 UTC
Tuuli 15 kn lännestä/luoteesta
Lämpötila 14°C
Kosteus 58%
Ilmanpaine 1009 hPa
Näkyvyys 10 km tai enemmän

METAR: EKRN 231150Z AUTO 29015KT 9999NDV BKN032/// 14/06 Q1009

Aika: 14:22 (12:22 UTC)

Sääennuste

Tämä raportti tehtiin 1 tunti ja 0 minuuttia sitten, kello 11.22 UTC
Ennuste voimassa 23. päivästä klo 12 UTC - 23. päivään klo 21 UTC
Tuuli 15 kn lännestä
Näkyvyys 10 km tai enemmän
Hajanaisia pilviä 3000 ft:n korkeudessa
Ajoittain
23. päivästä klo 12 UTC - 23. päivään klo 21 UTC
Hajanaisia pilviä 2000 ft:n korkeudessa, Cumulonimbus.

TAF: EKRN 231122Z 2312/2321 28015KT 9999 SCT030 TEMPO 2312/2321 SCT020CB

Säähavainnot ja -ennusteet yli 4000 lentoasemalta (METAR- ja TAF-raportit).

Käytössä olevat sääasemat on merkitty karttaan keltaisilla ja punaisilla pisteillä.

Aseta hiiri pisteen päälle nähdäksesi sääaseman nimen.

Klikkaa sitten nähdäksesi säähavainnot ja -ennusteet.

Kartan vaihtaminen: klikkaa mustalla rastilla varustettuja vihreitä pisteitä, niin voit zoomata sisään; viivalla varustettua vihreää pistettä, niin voit zoomata ulos tai vihreitä nuolia, niin pääset viereisille kartoille.


METAR-TAF: